Time;durP1;ratioP1;P1;durP2;ratioP2;P2;SDS_P1;SDS_P2;PMS_P1;PMS_P2;Temp;Humidity;BMP_temperature;BMP_pressure;BME280_temperature;BME280_humidity;BME280_pressure;Samples;Min_cycle;Max_cycle;Signal;HPM_P1;HPM_P2
2023/03/07 00:00:33;;;;;;;20.10;8.50;;;2.70;99.90;;;;;;4949286;28;20691;-82
2023/03/07 00:02:59;;;;;;;17.45;9.45;;;2.70;99.90;;;;;;4961850;28;20238;-83
2023/03/07 00:05:24;;;;;;;19.67;9.30;;;2.70;99.90;;;;;;4969981;28;20242;-82
2023/03/07 00:07:50;;;;;;;23.70;10.60;;;2.70;99.90;;;;;;4970708;28;20184;-84
2023/03/07 00:10:16;;;;;;;19.00;9.47;;;2.70;99.90;;;;;;4949681;28;20208;-85
2023/03/07 00:12:41;;;;;;;21.40;10.50;;;2.70;99.90;;;;;;4948759;28;20774;-84
2023/03/07 00:15:07;;;;;;;20.77;11.70;;;2.70;99.90;;;;;;4951683;28;20439;-83
2023/03/07 00:17:35;;;;;;;20.17;9.18;;;2.80;99.90;;;;;;4955624;28;20195;-83
2023/03/07 00:20:04;;;;;;;18.00;7.65;;;2.80;99.90;;;;;;4964577;28;20208;-85
2023/03/07 00:22:30;;;;;;;19.30;9.35;;;2.70;99.90;;;;;;4967710;28;20683;-83
2023/03/07 00:24:55;;;;;;;25.50;9.57;;;2.70;99.90;;;;;;4958005;28;20191;-82
2023/03/07 00:27:21;;;;;;;19.30;8.90;;;2.70;99.90;;;;;;4954760;28;20186;-82
2023/03/07 00:29:47;;;;;;;17.43;8.93;;;2.80;99.90;;;;;;4954056;28;20692;-84
2023/03/07 00:32:13;;;;;;;16.13;8.45;;;2.80;99.90;;;;;;4953718;28;20234;-81
2023/03/07 00:34:38;;;;;;;19.10;10.63;;;2.80;99.90;;;;;;4970763;28;20179;-84
2023/03/07 00:37:04;;;;;;;19.17;10.23;;;2.90;99.90;;;;;;4968089;28;20188;-84
2023/03/07 00:39:29;;;;;;;21.20;10.03;;;2.90;99.90;;;;;;4979346;28;20739;-84
2023/03/07 00:41:55;;;;;;;17.57;8.13;;;2.90;99.90;;;;;;4955821;28;20211;-85
2023/03/07 00:44:21;;;;;;;18.87;9.70;;;2.80;99.90;;;;;;4967628;28;20181;-86
2023/03/07 00:46:46;;;;;;;18.42;9.40;;;2.70;99.90;;;;;;4947585;28;20226;-84
2023/03/07 00:49:12;;;;;;;17.07;9.70;;;2.80;99.90;;;;;;4950528;28;21747;-83
2023/03/07 00:51:37;;;;;;;15.33;8.50;;;2.80;99.90;;;;;;4958920;28;21236;-83
2023/03/07 00:54:03;;;;;;;18.20;10.27;;;2.80;99.90;;;;;;4969258;28;20188;-84
2023/03/07 00:56:29;;;;;;;19.07;10.17;;;2.80;99.90;;;;;;4953685;28;20188;-87
2023/03/07 00:58:54;;;;;;;15.33;9.20;;;2.80;99.90;;;;;;4957648;28;20195;-85
2023/03/07 01:01:22;;;;;;;21.13;10.07;;;2.80;99.90;;;;;;4957792;28;21207;-81
2023/03/07 01:03:48;;;;;;;17.70;9.50;;;2.80;99.90;;;;;;4966235;28;20211;-83
2023/03/07 01:06:16;;;;;;;16.00;8.50;;;2.80;99.90;;;;;;4964587;28;20187;-83
2023/03/07 01:08:42;;;;;;;20.15;10.27;;;2.80;99.90;;;;;;4947753;28;20187;-85
2023/03/07 01:11:07;;;;;;;16.47;9.13;;;2.80;99.90;;;;;;4949352;28;20234;-84
2023/03/07 01:13:34;;;;;;;13.67;8.43;;;2.80;99.90;;;;;;4953447;28;20442;-86
2023/03/07 01:16:07;;;;;;;20.17;9.23;;;2.70;99.90;;;;;;4953090;28;20188;-82
2023/03/07 01:18:32;;;;;;;19.08;10.23;;;2.90;99.90;;;;;;4951055;28;20624;-82
2023/03/07 01:20:58;;;;;;;24.67;10.80;;;2.90;99.90;;;;;;4938198;28;20211;-83
2023/03/07 01:23:24;;;;;;;16.90;9.53;;;2.80;99.90;;;;;;4950280;28;20924;-81
2023/03/07 01:25:49;;;;;;;22.23;10.20;;;2.80;99.90;;;;;;4963077;28;20211;-82
2023/03/07 01:28:15;;;;;;;16.97;9.40;;;2.80;99.90;;;;;;4958651;28;20183;-82
2023/03/07 01:30:40;;;;;;;18.30;9.30;;;2.80;99.90;;;;;;4934560;28;20200;-82
2023/03/07 01:33:06;;;;;;;31.60;10.93;;;2.80;99.90;;;;;;4955302;28;20821;-82
2023/03/07 01:35:38;;;;;;;19.00;9.60;;;2.80;99.90;;;;;;4966398;28;20439;-84
2023/03/07 01:38:05;;;;;;;16.77;8.20;;;2.80;99.90;;;;;;4943386;28;21756;-86
2023/03/07 01:40:31;;;;;;;19.40;10.95;;;2.90;99.90;;;;;;4939201;28;20218;-84
2023/03/07 01:43:30;;;;;;;17.60;8.15;;;2.90;99.90;;;;;;4965954;28;20609;-85
2023/03/07 01:46:17;;;;;;;17.48;8.90;;;2.90;99.90;;;;;;4944704;28;20180;-84
2023/03/07 01:48:50;;;;;;;19.00;9.45;;;2.90;99.90;;;;;;4954341;28;20731;-86
2023/03/07 01:51:17;;;;;;;25.10;10.20;;;2.90;99.90;;;;;;4970830;28;20179;-83
2023/03/07 01:53:43;;;;;;;20.33;11.00;;;2.90;99.90;;;;;;4955974;28;20183;-85
2023/03/07 01:56:10;;;;;;;18.23;9.73;;;2.90;99.90;;;;;;4944858;28;20917;-84
2023/03/07 01:58:38;;;;;;;26.08;11.40;;;2.90;99.90;;;;;;4959948;28;20848;-82
2023/03/07 02:01:07;;;;;;;18.20;9.30;;;2.90;99.90;;;;;;4940680;28;20275;-79
2023/03/07 02:03:38;;;;;;;20.52;10.32;;;2.90;99.90;;;;;;4972339;28;20231;-84
2023/03/07 02:06:08;;;;;;;21.73;11.18;;;2.80;99.90;;;;;;4966880;28;20211;-81
2023/03/07 02:08:36;;;;;;;24.52;10.98;;;2.90;99.90;;;;;;4960271;28;20246;-83
2023/03/07 02:11:01;;;;;;;20.55;8.65;;;2.80;99.90;;;;;;4959150;28;20287;-80
2023/03/07 02:13:28;;;;;;;28.90;12.17;;;2.70;99.90;;;;;;4969155;28;20194;-80
2023/03/07 02:15:55;;;;;;;23.77;10.93;;;2.70;99.90;;;;;;4960781;28;20258;-83
2023/03/07 02:18:25;;;;;;;20.38;8.57;;;2.70;99.90;;;;;;4949407;28;20198;-80
2023/03/07 02:21:14;;;;;;;21.15;8.93;;;2.60;99.90;;;;;;4934932;28;20204;-85
2023/03/07 02:23:57;;;;;;;22.65;12.65;;;2.50;99.90;;;;;;4966361;28;20297;-81
2023/03/07 02:26:45;;;;;;;21.30;11.40;;;2.60;99.90;;;;;;4970799;28;20190;-82
2023/03/07 02:29:11;;;;;;;21.98;11.63;;;2.60;99.90;;;;;;4969165;28;20245;-83
2023/03/07 02:31:37;;;;;;;18.25;9.82;;;2.60;99.90;;;;;;4964574;28;20676;-81
2023/03/07 02:34:15;;;;;;;48.10;23.90;;;2.60;99.90;;;;;;4942571;28;20184;-81
2023/03/07 02:36:41;;;;;;;30.77;15.30;;;2.60;99.90;;;;;;4956914;28;20184;-82
2023/03/07 02:39:07;;;;;;;17.93;9.23;;;2.50;99.90;;;;;;4950618;28;20214;-82
2023/03/07 02:41:34;;;;;;;27.75;12.18;;;2.50;99.90;;;;;;4953712;28;20194;-83
2023/03/07 02:43:59;;;;;;;31.83;12.07;;;2.50;99.90;;;;;;4942156;28;20315;-82
2023/03/07 02:46:25;;;;;;;21.70;10.40;;;2.60;99.90;;;;;;4945942;28;20183;-84
2023/03/07 02:48:50;;;;;;;21.40;10.63;;;2.50;99.90;;;;;;4957084;28;20184;-84
2023/03/07 02:51:16;;;;;;;23.17;9.40;;;2.50;99.90;;;;;;4954218;28;20191;-82
2023/03/07 02:53:41;;;;;;;22.93;10.83;;;2.40;99.90;;;;;;4984367;28;20218;-81
2023/03/07 02:56:07;;;;;;;21.47;10.23;;;2.40;99.90;;;;;;4972598;28;20222;-83
2023/03/07 02:58:33;;;;;;;20.07;11.17;;;2.40;99.90;;;;;;4947272;28;20217;-83
2023/03/07 03:00:58;;;;;;;25.73;11.77;;;2.40;99.90;;;;;;4949137;28;20215;-81
2023/03/07 03:03:24;;;;;;;22.20;11.03;;;2.30;99.90;;;;;;4947924;28;20204;-84
2023/03/07 03:05:50;;;;;;;22.07;11.73;;;2.30;99.90;;;;;;4954459;28;20522;-84
2023/03/07 03:08:15;;;;;;;21.70;11.40;;;2.30;99.90;;;;;;4948189;28;20719;-86
2023/03/07 03:10:41;;;;;;;23.73;10.83;;;2.30;99.90;;;;;;4946118;28;20274;-82
2023/03/07 03:13:06;;;;;;;21.90;10.10;;;2.30;99.90;;;;;;4968661;28;20194;-84
2023/03/07 03:15:32;;;;;;;23.70;11.43;;;2.30;99.90;;;;;;4970908;28;20186;-82
2023/03/07 03:17:58;;;;;;;22.63;11.80;;;2.30;99.90;;;;;;4958088;28;20219;-84
2023/03/07 03:20:24;;;;;;;18.13;10.07;;;2.30;99.90;;;;;;4948501;28;20221;-84
2023/03/07 03:22:51;;;;;;;15.00;8.45;;;2.30;99.90;;;;;;4945853;28;20302;-82
2023/03/07 03:25:17;;;;;;;20.40;10.40;;;2.40;99.90;;;;;;4940316;28;20191;-83
2023/03/07 03:27:42;;;;;;;24.63;10.32;;;2.30;99.90;;;;;;4946563;28;20238;-81
2023/03/07 03:30:11;;;;;;;21.00;11.70;;;2.40;99.90;;;;;;4944815;28;21904;-79
2023/03/07 03:32:37;;;;;;;21.38;10.25;;;2.30;99.90;;;;;;4974764;28;20241;-80
2023/03/07 03:35:04;;;;;;;20.98;10.05;;;2.30;99.90;;;;;;4943898;28;20192;-82
2023/03/07 03:37:31;;;;;;;23.77;11.02;;;2.30;99.90;;;;;;4935480;28;20579;-83
2023/03/07 03:39:56;;;;;;;20.42;10.20;;;2.40;99.90;;;;;;4956624;28;20641;-82
2023/03/07 03:42:22;;;;;;;17.37;10.00;;;2.50;99.90;;;;;;4945371;28;20214;-82
2023/03/07 03:44:48;;;;;;;19.67;11.85;;;2.50;99.90;;;;;;4944773;28;21886;-81
2023/03/07 03:47:14;;;;;;;23.20;10.83;;;2.50;99.90;;;;;;4943327;28;20188;-82
2023/03/07 03:49:39;;;;;;;19.67;9.23;;;2.60;99.90;;;;;;4941623;28;20462;-81
2023/03/07 03:52:05;;;;;;;20.50;10.83;;;2.60;99.90;;;;;;4951324;28;20188;-86
2023/03/07 03:54:30;;;;;;;26.50;12.03;;;3.50;99.90;;;;;;4965307;28;20194;-82
2023/03/07 03:56:56;;;;;;;18.63;10.17;;;2.70;99.90;;;;;;4954002;28;20713;-85
2023/03/07 03:59:22;;;;;;;21.37;10.97;;;2.70;99.90;;;;;;4951181;28;20306;-82
2023/03/07 04:01:47;;;;;;;19.20;9.90;;;2.70;99.90;;;;;;4953220;28;20250;-85
2023/03/07 04:04:13;;;;;;;24.77;11.30;;;2.70;99.90;;;;;;4946192;28;20463;-85
2023/03/07 04:06:39;;;;;;;25.33;12.90;;;2.80;99.90;;;;;;4963876;28;20183;-83
2023/03/07 04:09:04;;;;;;;21.60;10.60;;;2.80;99.90;;;;;;4958560;28;20465;-84
2023/03/07 04:11:30;;;;;;;21.47;9.90;;;2.80;99.90;;;;;;4948522;28;20648;-82
2023/03/07 04:13:55;;;;;;;22.97;11.50;;;2.80;99.90;;;;;;4949662;28;20215;-84
2023/03/07 04:16:21;;;;;;;21.17;9.80;;;2.90;99.90;;;;;;4945135;28;20282;-84
2023/03/07 04:18:49;;;;;;;19.50;9.70;;;2.90;99.90;;;;;;4950179;28;20890;-81
2023/03/07 04:21:14;;;;;;;22.27;10.02;;;2.90;99.90;;;;;;4941342;28;20202;-84
2023/03/07 04:23:40;;;;;;;19.00;10.93;;;2.90;99.90;;;;;;4938759;28;20220;-83
2023/03/07 04:26:07;;;;;;;18.20;9.80;;;3.00;99.90;;;;;;4956347;28;20188;-84
2023/03/07 04:31:08;;;;;;;23.27;10.40;;;3.00;99.90;;;;;;4952618;28;20254;-83
2023/03/07 04:33:34;;;;;;;19.05;11.02;;;2.90;99.90;;;;;;4947139;28;20195;-81
2023/03/07 04:35:59;;;;;;;27.47;11.60;;;2.90;99.90;;;;;;4946523;28;20180;-85
2023/03/07 04:38:25;;;;;;;17.10;9.40;;;2.90;99.90;;;;;;4962646;28;20253;-82
2023/03/07 04:40:50;;;;;;;18.73;9.30;;;2.90;99.90;;;;;;4939022;28;20697;-82
2023/03/07 04:43:16;;;;;;;18.43;10.40;;;3.00;99.90;;;;;;4938739;28;20207;-83
2023/03/07 04:45:41;;;;;;;18.23;10.00;;;3.00;99.90;;;;;;4964844;28;20757;-84
2023/03/07 04:48:07;;;;;;;24.70;10.97;;;3.00;99.90;;;;;;4957652;28;20176;-81
2023/03/07 04:50:32;;;;;;;18.83;9.70;;;3.00;99.90;;;;;;4977463;28;20200;-84
2023/03/07 04:52:58;;;;;;;18.77;10.80;;;3.10;99.90;;;;;;4954438;28;20191;-82
2023/03/07 04:55:23;;;;;;;15.67;7.67;;;3.10;99.90;;;;;;4961318;28;20183;-85
2023/03/07 04:57:50;;;;;;;16.37;9.40;;;3.10;99.90;;;;;;4958396;28;20596;-82
2023/03/07 05:00:17;;;;;;;18.23;9.07;;;3.10;99.90;;;;;;4962522;28;20235;-84
2023/03/07 05:02:43;;;;;;;14.52;7.72;;;3.10;99.90;;;;;;4952439;28;20214;-83
2023/03/07 05:05:09;;;;;;;24.75;10.48;;;3.10;99.90;;;;;;4956531;28;20250;-84
2023/03/07 05:07:35;;;;;;;19.83;8.67;;;3.20;99.90;;;;;;4956462;28;20176;-84
2023/03/07 05:10:00;;;;;;;16.43;8.80;;;3.20;99.90;;;;;;4956925;28;20493;-82
2023/03/07 05:12:27;;;;;;;16.70;9.90;;;3.10;99.90;;;;;;4944948;28;20183;-85
2023/03/07 05:14:52;;;;;;;20.15;10.23;;;3.20;99.90;;;;;;4949025;28;20660;-83
2023/03/07 05:17:18;;;;;;;15.57;8.70;;;3.20;99.90;;;;;;4954818;28;20195;-82
2023/03/07 05:19:44;;;;;;;17.95;9.52;;;3.10;99.90;;;;;;4944805;28;20210;-85
2023/03/07 05:22:09;;;;;;;15.43;9.90;;;3.20;99.90;;;;;;4942048;28;20210;-81
2023/03/07 05:24:35;;;;;;;18.23;8.97;;;3.20;99.90;;;;;;4941458;28;20184;-84
2023/03/07 05:27:01;;;;;;;12.03;7.03;;;3.20;99.90;;;;;;4947870;28;20275;-85
2023/03/07 05:29:27;;;;;;;15.05;7.78;;;3.20;99.90;;;;;;4961803;28;20203;-84
2023/03/07 05:31:53;;;;;;;23.60;9.93;;;3.20;99.90;;;;;;4948162;28;20274;-84
2023/03/07 05:34:19;;;;;;;19.25;9.38;;;3.20;99.90;;;;;;4931121;28;20172;-83
2023/03/07 05:36:44;;;;;;;13.93;7.63;;;3.20;99.90;;;;;;4948832;28;20234;-86
2023/03/07 05:39:10;;;;;;;11.30;7.33;;;3.20;99.90;;;;;;4941534;28;20270;-82
2023/03/07 05:41:35;;;;;;;18.70;11.20;;;3.20;99.90;;;;;;4946353;28;21304;-82
2023/03/07 05:44:02;;;;;;;17.03;7.90;;;3.30;99.90;;;;;;4953266;28;20294;-83
2023/03/07 05:46:27;;;;;;;20.48;9.13;;;3.30;99.90;;;;;;4953953;28;20188;-83
2023/03/07 05:48:54;;;;;;;15.43;7.77;;;3.30;99.90;;;;;;4950067;28;20822;-82
2023/03/07 05:51:19;;;;;;;15.82;9.07;;;3.30;99.90;;;;;;4939062;28;20183;-78
2023/03/07 05:53:45;;;;;;;15.10;8.23;;;3.30;99.90;;;;;;4961305;28;20201;-83
2023/03/07 05:56:11;;;;;;;16.07;8.30;;;3.30;99.90;;;;;;4949591;28;20790;-82
2023/03/07 05:58:37;;;;;;;12.88;7.03;;;3.40;99.90;;;;;;4955378;28;20708;-81
2023/03/07 06:01:03;;;;;;;15.13;8.07;;;3.40;99.90;;;;;;4960315;28;20305;-81
2023/03/07 06:03:29;;;;;;;14.25;7.00;;;3.40;99.90;;;;;;4978483;28;20498;-81
2023/03/07 06:05:55;;;;;;;15.95;7.00;;;3.40;99.90;;;;;;4983845;28;20207;-87
2023/03/07 06:08:20;;;;;;;12.93;6.40;;;3.40;99.90;;;;;;4957492;28;20202;-83
2023/03/07 06:10:50;;;;;;;13.07;6.70;;;3.40;99.90;;;;;;4955151;28;20203;-83
2023/03/07 06:13:19;;;;;;;13.75;7.45;;;3.40;99.90;;;;;;4970772;28;20200;-84
2023/03/07 06:15:47;;;;;;;15.85;8.10;;;3.40;99.90;;;;;;4960854;28;20179;-83
2023/03/07 06:18:13;;;;;;;14.68;7.40;;;3.40;99.90;;;;;;4950163;28;21168;-80
2023/03/07 06:20:39;;;;;;;18.20;8.90;;;3.50;99.90;;;;;;4939589;28;20245;-83
2023/03/07 06:23:04;;;;;;;18.37;8.80;;;3.50;99.90;;;;;;4949795;28;20284;-81
2023/03/07 06:25:30;;;;;;;15.10;7.50;;;3.50;99.90;;;;;;4940357;28;20321;-83
2023/03/07 06:27:59;;;;;;;15.53;8.23;;;3.50;99.90;;;;;;4947580;28;20505;-83
2023/03/07 06:30:25;;;;;;;11.00;7.15;;;3.50;99.90;;;;;;4937470;28;20231;-83
2023/03/07 06:32:51;;;;;;;16.50;7.70;;;3.60;99.90;;;;;;4966293;28;20317;-79
2023/03/07 06:35:16;;;;;;;14.20;7.13;;;3.60;99.90;;;;;;4943235;28;20294;-80
2023/03/07 06:37:42;;;;;;;12.00;6.97;;;3.60;99.90;;;;;;4942298;28;20192;-82
2023/03/07 06:40:09;;;;;;;14.40;7.97;;;3.60;99.90;;;;;;4962397;28;21014;-81
2023/03/07 06:42:35;;;;;;;14.48;7.80;;;3.60;99.90;;;;;;4950588;28;20250;-82
2023/03/07 06:45:00;;;;;;;13.37;7.40;;;3.60;99.90;;;;;;4967256;28;20211;-80
2023/03/07 06:47:26;;;;;;;10.97;6.63;;;3.60;99.90;;;;;;4971919;28;20238;-81
2023/03/07 06:49:52;;;;;;;23.97;8.73;;;3.70;99.90;;;;;;4952488;28;20226;-83
2023/03/07 06:52:18;;;;;;;16.80;8.15;;;3.70;99.90;;;;;;4961923;28;20191;-81
2023/03/07 06:54:43;;;;;;;14.30;7.50;;;3.80;99.90;;;;;;4965721;28;20188;-84
2023/03/07 06:57:09;;;;;;;13.63;7.53;;;3.80;99.90;;;;;;4947780;28;20465;-85
2023/03/07 06:59:34;;;;;;;15.47;7.40;;;3.80;99.90;;;;;;4971363;28;20317;-85
2023/03/07 07:02:01;;;;;;;13.50;7.90;;;3.90;99.90;;;;;;4976510;28;20555;-82
2023/03/07 07:04:27;;;;;;;11.40;8.00;;;3.90;99.90;;;;;;4956619;28;20179;-83
2023/03/07 07:06:53;;;;;;;14.50;7.10;;;3.90;99.90;;;;;;4953840;28;20246;-81
2023/03/07 07:09:18;;;;;;;13.50;7.40;;;4.00;99.90;;;;;;4972207;28;20521;-83
2023/03/07 07:11:44;;;;;;;13.30;8.57;;;4.00;99.90;;;;;;4952927;28;20266;-83
2023/03/07 07:14:09;;;;;;;13.20;8.00;;;4.10;99.90;;;;;;4939564;28;20196;-83
2023/03/07 07:16:35;;;;;;;12.33;9.10;;;4.10;99.90;;;;;;4973801;28;20210;-81
2023/03/07 07:19:00;;;;;;;15.07;8.90;;;4.20;99.90;;;;;;4954258;28;21290;-83
2023/03/07 07:21:26;;;;;;;22.07;8.97;;;4.30;99.90;;;;;;4957301;28;20186;-82
2023/03/07 07:23:51;;;;;;;17.40;10.50;;;4.30;99.90;;;;;;4957417;28;20697;-84
2023/03/07 07:26:17;;;;;;;17.13;7.73;;;4.40;99.90;;;;;;4961349;28;20249;-83
2023/03/07 07:28:43;;;;;;;13.60;7.90;;;4.40;99.90;;;;;;4950004;28;20726;-83
2023/03/07 07:31:08;;;;;;;15.20;8.17;;;4.60;99.90;;;;;;4956474;28;20195;-82
2023/03/07 07:33:34;;;;;;;13.87;8.00;;;4.60;99.90;;;;;;4968615;28;20693;-84
2023/03/07 07:35:59;;;;;;;16.00;8.50;;;4.70;99.90;;;;;;4955527;28;20281;-83
2023/03/07 07:38:25;;;;;;;18.57;8.60;;;4.80;99.90;;;;;;4969942;28;20310;-82
2023/03/07 07:40:50;;;;;;;17.70;9.00;;;4.80;99.90;;;;;;4966921;28;20390;-83
2023/03/07 07:43:16;;;;;;;15.37;8.57;;;4.80;99.90;;;;;;4946969;28;20331;-84
2023/03/07 07:45:42;;;;;;;11.45;7.00;;;4.80;99.90;;;;;;4948964;28;20675;-83
2023/03/07 07:48:08;;;;;;;10.97;7.37;;;4.70;99.90;;;;;;4971299;28;20180;-81
2023/03/07 07:50:34;;;;;;;16.90;7.13;;;4.70;99.90;;;;;;4964209;28;20459;-83
2023/03/07 07:53:00;;;;;;;12.63;5.90;;;4.60;99.90;;;;;;4955388;28;21149;-82
2023/03/07 07:55:25;;;;;;;17.70;7.90;;;4.60;99.90;;;;;;4960783;28;20278;-82
2023/03/07 07:57:51;;;;;;;19.60;8.40;;;4.60;99.90;;;;;;4949042;28;21015;-83
2023/03/07 08:00:20;;;;;;;13.37;7.50;;;4.60;99.90;;;;;;4945653;28;20207;-82
2023/03/07 08:02:48;;;;;;;11.25;6.85;;;4.70;99.90;;;;;;4950657;28;20469;-81
2023/03/07 08:05:14;;;;;;;10.35;6.97;;;4.60;99.90;;;;;;4969556;28;20178;-81
2023/03/07 08:07:40;;;;;;;16.92;7.90;;;4.60;99.90;;;;;;4956597;28;20179;-81
2023/03/07 08:10:06;;;;;;;14.37;6.70;;;4.70;99.90;;;;;;4969918;28;20270;-83
2023/03/07 08:12:32;;;;;;;13.80;5.68;;;4.80;99.90;;;;;;4935396;28;20195;-81
2023/03/07 08:14:57;;;;;;;11.83;5.90;;;5.00;99.90;;;;;;4950997;28;20187;-82
2023/03/07 08:17:23;;;;;;;15.60;7.53;;;5.10;99.90;;;;;;4961937;28;20450;-81
2023/03/07 08:19:48;;;;;;;12.47;6.63;;;5.20;99.90;;;;;;4936458;28;20593;-83
2023/03/07 08:22:15;;;;;;;13.10;6.80;;;5.30;99.90;;;;;;4959430;28;20450;-83
2023/03/07 08:24:41;;;;;;;14.88;7.95;;;5.30;99.90;;;;;;4970427;28;20186;-82
2023/03/07 08:27:07;;;;;;;12.63;7.70;;;5.20;99.90;;;;;;4950845;28;20187;-84
2023/03/07 08:29:34;;;;;;;12.23;6.35;;;5.30;99.90;;;;;;4938358;28;20204;-82
2023/03/07 08:32:00;;;;;;;13.65;7.82;;;5.00;99.90;;;;;;4974003;28;20206;-78
2023/03/07 08:34:25;;;;;;;10.10;6.40;;;5.30;99.90;;;;;;4963978;28;20195;-84
2023/03/07 08:36:51;;;;;;;10.57;5.90;;;5.20;99.90;;;;;;4955144;28;20434;-79
2023/03/07 08:39:17;;;;;;;13.07;6.43;;;5.30;99.90;;;;;;4971534;28;20287;-82
2023/03/07 08:41:43;;;;;;;10.88;5.70;;;5.30;99.90;;;;;;4963717;28;20190;-82
2023/03/07 08:44:08;;;;;;;12.30;6.07;;;5.40;99.90;;;;;;4948329;28;20211;-81
2023/03/07 08:46:34;;;;;;;5.77;3.90;;;5.40;99.90;;;;;;4972783;28;20191;-84
2023/03/07 08:49:00;;;;;;;11.60;5.17;;;5.40;99.90;;;;;;4960549;28;20211;-82
2023/03/07 08:51:25;;;;;;;11.00;4.80;;;5.30;99.90;;;;;;4956135;28;20190;-82
2023/03/07 08:53:50;;;;;;;6.90;4.40;;;5.40;99.90;;;;;;4958322;28;20214;-81
2023/03/07 08:56:17;;;;;;;9.90;5.50;;;5.70;99.90;;;;;;4956931;28;20210;-84
2023/03/07 08:58:43;;;;;;;14.30;5.25;;;5.80;99.90;;;;;;4949808;28;20183;-83
2023/03/07 09:01:09;;;;;;;13.80;5.57;;;5.80;99.90;;;;;;4945849;28;20198;-84
2023/03/07 09:03:35;;;;;;;7.40;4.50;;;6.00;99.90;;;;;;4963903;28;20229;-81
2023/03/07 09:06:02;;;;;;;9.70;5.05;;;5.70;99.90;;;;;;4971338;28;20427;-80
2023/03/07 09:08:28;;;;;;;8.48;4.80;;;5.60;99.90;;;;;;4950587;28;20195;-81
2023/03/07 09:10:54;;;;;;;9.03;5.13;;;5.80;99.90;;;;;;4970258;28;20203;-83
2023/03/07 09:13:20;;;;;;;11.73;4.17;;;6.00;99.90;;;;;;4945596;28;20199;-84
2023/03/07 09:15:45;;;;;;;8.60;4.07;;;6.00;99.90;;;;;;4965744;28;20440;-81
2023/03/07 09:18:11;;;;;;;8.67;4.33;;;6.30;99.90;;;;;;4954288;28;20475;-83
2023/03/07 09:20:37;;;;;;;8.03;4.80;;;6.30;99.90;;;;;;4938412;28;20200;-82
2023/03/07 09:23:03;;;;;;;11.60;5.10;;;6.50;99.90;;;;;;4970824;28;20476;-80
2023/03/07 09:25:30;;;;;;;7.72;4.22;;;6.50;99.90;;;;;;4952762;28;20427;-83
2023/03/07 09:27:55;;;;;;;11.23;4.68;;;6.60;99.90;;;;;;4963012;28;20194;-80
2023/03/07 09:30:21;;;;;;;9.20;4.97;;;6.30;99.90;;;;;;4961263;28;20220;-80
2023/03/07 09:32:48;;;;;;;9.93;5.53;;;5.90;99.90;;;;;;4965215;28;20188;-84
2023/03/07 09:35:14;;;;;;;10.35;5.35;;;5.90;99.90;;;;;;4965877;28;20184;-84
2023/03/07 09:37:40;;;;;;;12.27;5.10;;;6.20;99.90;;;;;;4956991;28;20265;-81
2023/03/07 09:40:06;;;;;;;6.40;4.20;;;6.10;99.90;;;;;;4969902;28;20203;-83
2023/03/07 09:42:54;;;;;;;7.65;4.22;;;6.20;99.90;;;;;;4966374;28;20461;-82
2023/03/07 09:45:36;;;;;;;8.57;3.95;;;6.20;99.90;;;;;;4944358;28;20183;-80
2023/03/07 09:48:38;;;;;;;8.07;3.95;;;6.20;99.90;;;;;;4978978;28;20207;-84
2023/03/07 09:51:21;;;;;;;11.10;4.88;;;5.70;99.90;;;;;;4948461;28;20225;-85
2023/03/07 09:54:01;;;;;;;7.75;5.20;;;5.70;99.90;;;;;;4951146;28;20190;-85
2023/03/07 09:56:42;;;;;;;9.32;5.15;;;5.90;99.90;;;;;;4939674;28;20187;-83
2023/03/07 09:59:21;;;;;;;6.63;3.78;;;6.20;99.90;;;;;;4982018;28;20200;-80
2023/03/07 10:02:09;;;;;;;5.57;3.25;;;6.00;99.90;;;;;;4972954;28;20194;-81
2023/03/07 10:05:01;;;;;;;6.82;3.20;;;5.70;99.90;;;;;;4969734;28;20316;-83
2023/03/07 10:07:28;;;;;;;8.80;5.25;;;5.80;99.90;;;;;;4964277;28;20183;-84
2023/03/07 10:09:59;;;;;;;7.75;4.47;;;6.00;99.90;;;;;;4945909;28;20203;-85
2023/03/07 10:12:30;;;;;;;8.73;4.50;;;6.30;99.90;;;;;;4936403;28;20270;-82
2023/03/07 10:15:23;;;;;;;6.38;3.47;;;6.10;99.90;;;;;;4956334;28;20183;-83
2023/03/07 10:18:13;;;;;;;6.97;3.72;;;5.80;99.90;;;;;;4971530;28;21123;-81
2023/03/07 10:20:55;;;;;;;7.85;4.50;;;5.80;99.90;;;;;;4959384;28;20203;-81
2023/03/07 10:23:27;;;;;;;5.22;3.17;;;5.90;99.90;;;;;;4983339;28;20364;-84
2023/03/07 10:26:04;;;;;;;9.02;4.80;;;6.00;99.90;;;;;;4971903;28;20245;-86
2023/03/07 10:28:35;;;;;;;6.95;5.20;;;6.20;99.90;;;;;;4954321;28;20180;-84
2023/03/07 10:31:23;;;;;;;9.32;5.68;;;6.30;99.90;;;;;;4971517;28;20203;-82
2023/03/07 10:33:50;;;;;;;6.57;3.88;;;6.40;99.90;;;;;;4952940;28;20203;-81
2023/03/07 10:36:34;;;;;;;8.52;5.00;;;6.40;99.90;;;;;;4952185;28;20192;-84
2023/03/07 10:39:05;;;;;;;7.78;4.25;;;6.80;99.90;;;;;;4979838;28;20188;-84
2023/03/07 10:41:31;;;;;;;6.50;3.20;;;6.50;99.90;;;;;;4979937;28;20192;-84
2023/03/07 10:43:57;;;;;;;6.40;3.57;;;6.40;99.90;;;;;;4976732;28;20262;-80
2023/03/07 10:46:26;;;;;;;8.68;4.00;;;6.10;99.90;;;;;;4964318;28;20185;-82
2023/03/07 10:48:52;;;;;;;7.80;5.10;;;6.20;99.90;;;;;;4965653;28;20188;-84
2023/03/07 10:51:56;;;;;;;8.73;4.30;;;6.40;99.90;;;;;;4948381;28;20179;-83
2023/03/07 10:54:33;;;;;;;13.73;5.25;;;6.50;99.50;;;;;;4981702;28;20202;-85
2023/03/07 10:57:08;;;;;;;9.85;4.78;;;6.50;99.20;;;;;;4960863;28;20848;-84
2023/03/07 10:59:35;;;;;;;17.95;4.95;;;6.60;98.70;;;;;;4957055;28;20245;-82
2023/03/07 11:02:04;;;;;;;12.38;4.70;;;6.70;98.30;;;;;;4952862;28;20202;-83
2023/03/07 11:04:43;;;;;;;7.47;3.80;;;6.70;97.30;;;;;;4962627;28;20191;-85
2023/03/07 11:07:23;;;;;;;8.15;4.88;;;6.60;97.20;;;;;;4969040;28;20187;-84
2023/03/07 11:09:48;;;;;;;7.78;4.20;;;6.60;96.70;;;;;;4977717;28;20214;-84
2023/03/07 11:12:19;;;;;;;14.40;4.80;;;6.60;97.00;;;;;;4954557;28;20197;-81
2023/03/07 11:14:48;;;;;;;7.50;3.90;;;6.40;97.40;;;;;;4972382;28;20191;-84
2023/03/07 11:17:26;;;;;;;8.93;4.07;;;6.60;97.10;;;;;;4969192;28;20215;-85
2023/03/07 11:19:56;;;;;;;9.70;5.70;;;6.60;97.00;;;;;;4952307;28;20262;-81
2023/03/07 11:22:32;;;;;;;8.32;4.05;;;7.00;97.10;;;;;;4953544;28;20586;-84
2023/03/07 11:25:05;;;;;;;5.85;3.95;;;6.40;96.50;;;;;;4973828;28;20214;-82
2023/03/07 11:27:32;;;;;;;16.02;4.68;;;6.10;97.00;;;;;;4967974;28;20187;-80
2023/03/07 11:30:13;;;;;;;7.40;4.28;;;6.30;97.20;;;;;;4963473;28;20295;-83
2023/03/07 11:32:57;;;;;;;7.32;4.35;;;6.70;97.50;;;;;;4955944;28;20775;-83
2023/03/07 11:35:48;;;;;;;8.45;3.88;;;6.90;96.80;;;;;;4941181;28;20296;-83
2023/03/07 11:38:43;;;;;;;8.07;4.97;;;6.80;96.50;;;;;;4931401;28;20247;-81
2023/03/07 11:41:24;;;;;;;18.05;6.25;;;7.10;96.60;;;;;;4967084;28;20714;-81
2023/03/07 11:44:11;;;;;;;5.63;3.53;;;7.10;96.40;;;;;;4971881;28;20214;-84
2023/03/07 11:46:58;;;;;;;6.90;4.90;;;6.70;95.70;;;;;;4972745;28;20859;-83
2023/03/07 11:50:03;;;;;;;8.68;4.18;;;6.60;96.70;;;;;;4962296;28;21068;-82
2023/03/07 11:52:47;;;;;;;6.95;4.30;;;6.60;96.70;;;;;;4933976;28;20200;-82
2023/03/07 11:55:34;;;;;;;8.10;4.55;;;6.90;97.10;;;;;;4974404;28;20707;-84
2023/03/07 11:58:24;;;;;;;6.78;3.78;;;7.50;97.50;;;;;;4963023;28;20224;-82
2023/03/07 12:01:28;;;;;;;8.38;4.63;;;7.70;96.30;;;;;;4959519;28;20224;-82
2023/03/07 12:04:22;;;;;;;8.70;5.80;;;7.40;95.30;;;;;;4955784;28;20207;-80
2023/03/07 12:07:02;;;;;;;6.45;4.00;;;7.20;95.40;;;;;;4966293;28;20925;-81
2023/03/07 12:09:39;;;;;;;9.85;4.40;;;7.00;95.10;;;;;;4954579;28;20274;-80
2023/03/07 12:12:21;;;;;;;5.68;3.72;;;6.90;95.40;;;;;;4967798;28;20198;-82
2023/03/07 12:15:19;;;;;;;9.77;4.30;;;6.80;95.60;;;;;;4986098;28;20179;-81
2023/03/07 12:18:15;;;;;;;16.70;5.30;;;6.60;96.00;;;;;;4981648;28;20196;-82
2023/03/07 12:20:59;;;;;;;7.65;4.38;;;6.70;96.20;;;;;;4977100;28;20206;-84
2023/03/07 12:23:36;;;;;;;11.85;4.43;;;6.80;96.30;;;;;;4950554;28;20501;-79
2023/03/07 12:26:12;;;;;;;8.60;4.65;;;6.50;95.70;;;;;;4974143;28;20183;-83
2023/03/07 12:29:00;;;;;;;9.93;4.70;;;6.70;96.20;;;;;;4988621;28;20179;-82
2023/03/07 12:31:36;;;;;;;8.73;4.97;;;6.60;96.40;;;;;;4977234;28;20261;-82
2023/03/07 12:34:08;;;;;;;6.68;3.83;;;6.80;96.20;;;;;;4957013;28;20270;-82
2023/03/07 12:36:41;;;;;;;8.77;3.83;;;7.00;95.10;;;;;;4964262;28;22166;-82
2023/03/07 12:39:28;;;;;;;7.38;4.05;;;7.30;95.30;;;;;;4965292;28;20202;-83
2023/03/07 12:42:01;;;;;;;6.65;3.75;;;7.30;94.50;;;;;;4992376;28;20174;-79
2023/03/07 12:44:41;;;;;;;9.27;4.60;;;7.70;94.60;;;;;;4975840;28;20195;-83
2023/03/07 12:47:18;;;;;;;8.05;4.43;;;7.20;93.60;;;;;;4954684;28;20184;-83
2023/03/07 12:50:04;;;;;;;11.32;4.53;;;7.10;94.20;;;;;;4968026;28;21489;-83
2023/03/07 12:52:47;;;;;;;8.43;3.88;;;7.30;94.40;;;;;;4951172;28;20326;-80
2023/03/07 12:55:15;;;;;;;8.80;4.75;;;7.20;94.10;;;;;;4948338;28;20809;-85
2023/03/07 12:57:49;;;;;;;9.05;4.47;;;7.10;94.70;;;;;;4957606;28;20192;-83
2023/03/07 13:00:19;;;;;;;6.57;4.13;;;7.10;94.20;;;;;;4962794;28;20255;-82
2023/03/07 13:02:58;;;;;;;5.65;3.90;;;7.40;96.10;;;;;;4963449;28;20747;-82